createdAt,value
2018-11-29T00:00:38.760Z,92.03
2018-11-29T00:03:08.105Z,92.06
2018-11-29T00:05:36.448Z,91.90
2018-11-29T00:08:04.991Z,91.92
2018-11-29T00:10:33.300Z,92.21
2018-11-29T00:13:01.751Z,91.17
2018-11-29T00:15:30.085Z,91.25
2018-11-29T00:17:58.936Z,91.38
2018-11-29T00:20:27.426Z,91.72
2018-11-29T00:22:55.813Z,92.75
2018-11-29T00:25:24.881Z,91.53
2018-11-29T00:27:53.332Z,92.12
2018-11-29T00:30:24.271Z,92.03
2018-11-29T00:32:53.664Z,91.78
2018-11-29T00:35:22.053Z,91.96
2018-11-29T00:37:50.458Z,92.00
2018-11-29T00:40:21.907Z,91.56
2018-11-29T00:42:51.500Z,90.85
2018-11-29T00:45:22.081Z,92.48
2018-11-29T00:47:51.832Z,91.62
2018-11-29T00:50:20.988Z,92.59
2018-11-29T00:52:49.987Z,92.48
2018-11-29T00:55:22.640Z,92.39
2018-11-29T00:57:51.360Z,92.51
2018-11-29T01:00:24.569Z,93.38
2018-11-29T01:02:53.042Z,93.11
2018-11-29T01:05:22.182Z,94.19
2018-11-29T01:07:50.599Z,93.44
2018-11-29T01:10:19.236Z,94.25
2018-11-29T01:12:48.460Z,94.89
2018-11-29T01:15:18.152Z,94.79
2018-11-29T01:17:47.498Z,94.51
2018-11-29T01:20:19.946Z,95.13
2018-11-29T01:22:48.365Z,95.45
2018-11-29T01:25:17.400Z,95.29
2018-11-29T01:27:47.055Z,95.25
2018-11-29T01:30:16.397Z,94.70
2018-11-29T01:32:44.847Z,95.73
2018-11-29T01:35:14.082Z,95.21
2018-11-29T01:37:42.616Z,95.54
2018-11-29T01:40:19.581Z,94.89
2018-11-29T01:42:49.142Z,95.15
2018-11-29T01:45:17.526Z,93.94
2018-11-29T01:47:46.052Z,95.26
2018-11-29T01:50:14.811Z,95.20
2018-11-29T01:52:43.190Z,94.97
2018-11-29T01:55:11.628Z,94.87
2018-11-29T01:57:40.211Z,95.38
2018-11-29T02:00:17.414Z,95.21
2018-11-29T02:02:47.048Z,94.54
2018-11-29T02:05:15.504Z,95.58
2018-11-29T02:07:43.794Z,94.44
2018-11-29T02:10:19.479Z,93.87
2018-11-29T02:12:47.808Z,94.62
2018-11-29T02:15:16.294Z,95.40
2018-11-29T02:17:44.684Z,94.66
2018-11-29T02:20:16.912Z,94.89
2018-11-29T02:22:45.624Z,94.44
2018-11-29T02:25:14.085Z,94.43
2018-11-29T02:27:42.658Z,94.92
2018-11-29T02:30:14.463Z,94.48
2018-11-29T02:32:42.853Z,95.23
2018-11-29T02:35:11.237Z,95.31
2018-11-29T02:37:39.543Z,95.46
2018-11-29T02:40:10.140Z,95.56
2018-11-29T02:42:38.584Z,95.45
2018-11-29T02:45:09.090Z,94.80
2018-11-29T02:47:37.394Z,94.34
2018-11-29T02:50:06.425Z,95.38
2018-11-29T02:52:34.898Z,94.98
2018-11-29T02:55:03.378Z,94.77
2018-11-29T02:57:32.387Z,94.79
2018-11-29T03:00:00.705Z,94.90
2018-11-29T03:02:29.001Z,94.84
2018-11-29T03:04:57.336Z,94.82
2018-11-29T03:07:25.718Z,94.90
2018-11-29T03:09:54.401Z,95.20
2018-11-29T03:12:22.779Z,95.19
2018-11-29T03:14:51.283Z,94.12
2018-11-29T03:17:19.820Z,93.88
2018-11-29T03:19:48.138Z,94.10
2018-11-29T03:22:16.568Z,94.24
2018-11-29T03:24:45.267Z,94.16
2018-11-29T03:27:13.662Z,93.23
2018-11-29T03:29:42.186Z,92.81
2018-11-29T03:32:10.548Z,93.17
2018-11-29T03:34:39.561Z,93.67
2018-11-29T03:37:08.073Z,93.54
2018-11-29T03:39:36.514Z,93.98
2018-11-29T03:42:05.162Z,93.29
2018-11-29T03:44:33.612Z,92.92
2018-11-29T03:47:02.134Z,93.52
2018-11-29T03:49:30.530Z,93.48
2018-11-29T03:51:58.925Z,92.54
2018-11-29T03:54:27.260Z,92.02
2018-11-29T03:56:55.756Z,92.56
2018-11-29T03:59:24.540Z,93.42
2018-11-29T04:01:52.898Z,93.49
2018-11-29T04:04:21.295Z,92.79
2018-11-29T04:06:49.663Z,92.89
2018-11-29T04:09:18.033Z,92.62
2018-11-29T04:11:46.380Z,93.23
2018-11-29T04:14:15.173Z,93.41
2018-11-29T04:16:43.545Z,93.47
2018-11-29T04:19:11.986Z,92.69
2018-11-29T04:21:40.385Z,92.82
2018-11-29T04:24:08.790Z,93.14
2018-11-29T04:26:37.198Z,93.94
2018-11-29T04:29:05.789Z,93.64
2018-11-29T04:31:34.195Z,93.19
2018-11-29T04:34:02.529Z,92.90
2018-11-29T04:36:30.988Z,92.98
2018-11-29T04:38:59.329Z,93.55
2018-11-29T04:41:27.780Z,93.96
2018-11-29T04:43:56.094Z,93.81
2018-11-29T04:46:42.893Z,94.01
2018-11-29T04:49:11.276Z,94.81
2018-11-29T04:51:39.745Z,94.46
2018-11-29T04:54:08.909Z,94.43
2018-11-29T04:56:37.300Z,93.93
2018-11-29T04:59:05.757Z,94.08
2018-11-29T05:01:34.285Z,93.97
2018-11-29T05:04:02.776Z,94.39
2018-11-29T05:06:31.261Z,93.97
2018-11-29T05:08:59.593Z,93.94
2018-11-29T05:11:28.006Z,94.02
2018-11-29T05:13:56.314Z,94.22
2018-11-29T05:16:24.709Z,94.28
2018-11-29T05:18:53.023Z,93.80
2018-11-29T05:21:21.410Z,93.36
2018-11-29T05:23:49.809Z,94.04
2018-11-29T05:26:18.136Z,93.42
2018-11-29T05:28:46.571Z,93.71
2018-11-29T05:31:15.104Z,93.39
2018-11-29T05:33:43.628Z,93.34
2018-11-29T05:36:11.965Z,93.65
2018-11-29T05:38:40.290Z,93.58
2018-11-29T05:41:08.666Z,94.18
2018-11-29T05:43:37.076Z,93.75
2018-11-29T05:46:05.457Z,93.97
2018-11-29T05:48:33.810Z,94.03
2018-11-29T05:51:02.184Z,93.56
2018-11-29T05:53:30.551Z,93.39
2018-11-29T05:55:58.864Z,93.99
2018-11-29T05:58:27.153Z,93.38
2018-11-29T06:00:55.701Z,92.86
2018-11-29T06:03:24.042Z,93.17
2018-11-29T06:05:52.385Z,92.56
2018-11-29T06:08:20.823Z,93.31
2018-11-29T06:10:49.308Z,93.53
2018-11-29T06:13:17.690Z,93.50
2018-11-29T06:15:46.036Z,92.68
2018-11-29T06:18:14.841Z,92.63
2018-11-29T06:20:43.438Z,93.26
2018-11-29T06:23:11.910Z,93.05
2018-11-29T06:25:40.246Z,93.37
2018-11-29T06:28:08.678Z,93.21
2018-11-29T06:30:38.433Z,93.28
2018-11-29T06:33:07.189Z,93.90
2018-11-29T06:35:35.753Z,93.69
2018-11-29T06:38:04.172Z,93.34
2018-11-29T06:40:32.636Z,93.47
2018-11-29T06:43:01.069Z,93.20
2018-11-29T06:45:29.507Z,94.03
2018-11-29T06:47:58.208Z,93.82
2018-11-29T06:50:26.764Z,93.42
2018-11-29T06:52:55.150Z,93.49
2018-11-29T06:55:24.276Z,93.39
2018-11-29T06:57:53.562Z,93.22
2018-11-29T07:00:28.944Z,93.02
2018-11-29T07:02:57.394Z,93.19
2018-11-29T07:05:25.730Z,93.82
2018-11-29T07:07:54.212Z,93.74
2018-11-29T07:10:27.965Z,93.63
2018-11-29T07:12:56.440Z,93.25
2018-11-29T07:15:24.809Z,92.40
2018-11-29T07:17:53.234Z,92.17
2018-11-29T07:20:21.789Z,92.78
2018-11-29T07:22:50.194Z,93.41
2018-11-29T07:25:18.689Z,93.26
2018-11-29T07:27:47.205Z,93.02
2018-11-29T07:30:17.317Z,91.83
2018-11-29T07:32:46.178Z,92.31
2018-11-29T07:35:15.477Z,91.88
2018-11-29T07:37:43.921Z,92.33
2018-11-29T07:40:18.443Z,93.06
2018-11-29T07:42:49.324Z,93.02
2018-11-29T07:45:18.769Z,93.52
2018-11-29T07:47:47.425Z,93.42
2018-11-29T07:50:18.134Z,93.47
2018-11-29T07:52:46.788Z,93.12
2018-11-29T07:55:17.395Z,93.40
2018-11-29T07:57:46.509Z,93.03
2018-11-29T08:00:15.837Z,92.71
2018-11-29T08:02:44.303Z,92.74
2018-11-29T08:05:13.765Z,92.33
2018-11-29T08:07:47.448Z,92.42
2018-11-29T08:10:14.023Z,92.33
2018-11-29T08:12:42.380Z,92.03
2018-11-29T08:15:13.939Z,92.23
2018-11-29T08:17:42.345Z,92.11
2018-11-29T08:20:13.978Z,92.16
2018-11-29T08:22:42.337Z,91.84
2018-11-29T08:25:11.373Z,92.31
2018-11-29T08:27:39.777Z,91.98
2018-11-29T08:30:12.349Z,91.92
2018-11-29T08:32:41.095Z,91.77
2018-11-29T08:35:10.688Z,91.50
2018-11-29T08:37:40.599Z,91.78
2018-11-29T08:40:13.569Z,92.15
2018-11-29T08:42:41.990Z,92.02
2018-11-29T08:45:11.274Z,91.47
2018-11-29T08:47:39.814Z,91.92
2018-11-29T08:50:11.416Z,90.88
2018-11-29T08:52:40.294Z,91.63
2018-11-29T08:55:13.864Z,91.46
2018-11-29T08:57:42.278Z,91.06
2018-11-29T09:00:12.905Z,91.20
2018-11-29T09:02:41.265Z,90.09
2018-11-29T09:05:10.489Z,90.88
2018-11-29T09:07:38.873Z,90.27
2018-11-29T09:10:11.445Z,90.10
2018-11-29T09:12:39.810Z,90.39
2018-11-29T09:15:11.266Z,90.74
2018-11-29T09:17:39.944Z,90.77
2018-11-29T09:20:11.169Z,90.25
2018-11-29T09:22:39.489Z,90.00
2018-11-29T09:25:09.867Z,89.51
2018-11-29T09:27:38.381Z,90.56
2018-11-29T09:30:16.158Z,90.74
2018-11-29T09:32:45.353Z,91.57
2018-11-29T09:35:13.932Z,91.56
2018-11-29T09:37:42.317Z,90.44
2018-11-29T09:40:13.866Z,90.75
2018-11-29T09:42:42.529Z,91.97
2018-11-29T09:45:13.895Z,91.18
2018-11-29T09:47:42.519Z,90.39
2018-11-29T09:50:12.029Z,91.30
2018-11-29T09:52:40.851Z,90.60
2018-11-29T09:55:13.938Z,91.50
2018-11-29T09:57:42.730Z,90.94
2018-11-29T10:00:13.668Z,91.45
2018-11-29T10:02:42.566Z,91.11
2018-11-29T10:05:11.783Z,90.52
2018-11-29T10:07:40.221Z,91.06
2018-11-29T10:10:10.357Z,90.86
2018-11-29T10:12:39.266Z,91.04
2018-11-29T10:15:09.876Z,90.84
2018-11-29T10:17:38.699Z,90.51
2018-11-29T10:20:09.642Z,90.67
2018-11-29T10:22:38.102Z,90.77
2018-11-29T10:25:08.310Z,90.12
2018-11-29T10:27:36.658Z,90.48
2018-11-29T10:30:10.062Z,89.66
2018-11-29T10:32:38.473Z,89.99
2018-11-29T10:35:07.992Z,89.15
2018-11-29T10:37:36.483Z,88.92
2018-11-29T10:40:07.497Z,88.94
2018-11-29T10:42:35.861Z,88.72
2018-11-29T10:45:04.285Z,87.33
2018-11-29T10:47:32.596Z,87.61
2018-11-29T10:50:00.963Z,88.02
2018-11-29T10:52:29.265Z,88.22
2018-11-29T10:54:57.821Z,88.08
2018-11-29T10:57:26.353Z,88.48
2018-11-29T10:59:54.665Z,87.67
2018-11-29T11:02:29.742Z,87.28
2018-11-29T11:04:58.297Z,87.34
2018-11-29T11:07:26.809Z,87.17
2018-11-29T11:09:55.168Z,87.18
2018-11-29T11:12:23.506Z,86.12
2018-11-29T11:14:51.949Z,86.34
2018-11-29T11:17:20.287Z,86.25
2018-11-29T11:19:48.612Z,85.25
2018-11-29T11:22:16.953Z,86.20
2018-11-29T11:24:45.277Z,87.15
2018-11-29T11:27:13.686Z,85.61
2018-11-29T11:29:42.077Z,85.88
2018-11-29T11:32:10.370Z,85.22
2018-11-29T11:34:38.706Z,86.56
2018-11-29T11:37:07.081Z,85.00
2018-11-29T11:39:35.427Z,85.60
2018-11-29T11:42:03.948Z,85.53
2018-11-29T11:44:32.251Z,85.89
2018-11-29T11:47:00.580Z,86.76
2018-11-29T11:49:28.906Z,86.36
2018-11-29T11:51:57.201Z,86.78
2018-11-29T11:54:25.510Z,86.61
2018-11-29T11:56:53.860Z,86.08
2018-11-29T11:59:22.182Z,86.04
2018-11-29T12:01:50.554Z,85.81
2018-11-29T12:04:18.915Z,85.22
2018-11-29T12:06:47.209Z,85.97
2018-11-29T12:09:15.624Z,85.84
2018-11-29T12:11:43.992Z,84.36
2018-11-29T12:14:12.486Z,85.08
2018-11-29T12:16:40.801Z,84.07
2018-11-29T12:19:09.161Z,83.78
2018-11-29T12:21:37.586Z,83.94
2018-11-29T12:24:06.474Z,85.03
2018-11-29T12:26:34.848Z,84.52
2018-11-29T12:29:03.231Z,84.94
2018-11-29T12:31:31.601Z,85.24
2018-11-29T12:34:00.006Z,84.46
2018-11-29T12:36:28.328Z,84.81
2018-11-29T12:38:56.776Z,85.48
2018-11-29T12:41:25.138Z,85.07
2018-11-29T12:43:53.496Z,84.70
2018-11-29T12:46:21.834Z,85.01
2018-11-29T12:48:50.261Z,86.38
2018-11-29T12:51:18.625Z,86.24
2018-11-29T12:53:46.966Z,85.86
2018-11-29T12:56:15.345Z,85.70
2018-11-29T12:58:43.682Z,86.21
2018-11-29T13:01:12.158Z,85.52
2018-11-29T13:03:40.453Z,85.95
2018-11-29T13:06:08.765Z,87.05
2018-11-29T13:08:37.253Z,86.95
2018-11-29T13:11:08.557Z,87.11
2018-11-29T13:13:34.347Z,86.42
2018-11-29T13:16:02.750Z,86.71
2018-11-29T13:18:31.080Z,86.13
2018-11-29T13:21:02.048Z,86.40
2018-11-29T13:23:31.171Z,86.58
2018-11-29T13:25:59.558Z,86.58
2018-11-29T13:28:27.878Z,86.51
2018-11-29T13:30:56.225Z,86.34
2018-11-29T13:33:24.540Z,87.17
2018-11-29T13:35:52.908Z,87.74
2018-11-29T13:38:21.255Z,86.67
2018-11-29T13:40:51.081Z,86.67
2018-11-29T13:43:18.857Z,87.08
2018-11-29T13:45:47.213Z,87.37
2018-11-29T13:48:15.617Z,87.36
2018-11-29T13:50:43.973Z,87.00
2018-11-29T13:53:12.325Z,87.41
2018-11-29T13:55:40.801Z,87.13
2018-11-29T13:58:09.088Z,86.17
2018-11-29T14:00:37.416Z,86.58
2018-11-29T14:03:09.671Z,86.15
2018-11-29T14:05:38.021Z,86.70
2018-11-29T14:08:07.224Z,85.87
2018-11-29T14:10:35.610Z,86.15
2018-11-29T14:13:04.056Z,85.86
2018-11-29T14:15:32.476Z,85.91
2018-11-29T14:18:01.601Z,86.38
2018-11-29T14:20:30.734Z,86.21
2018-11-29T14:22:58.545Z,86.56
2018-11-29T14:25:26.880Z,84.75
2018-11-29T14:27:56.413Z,85.40
2018-11-29T14:30:26.752Z,84.72
2018-11-29T14:32:56.243Z,85.18
2018-11-29T14:35:24.543Z,85.01
2018-11-29T14:37:52.853Z,84.85
2018-11-29T14:40:23.313Z,84.49
2018-11-29T14:42:51.713Z,85.59
2018-11-29T14:45:21.034Z,84.74
2018-11-29T14:47:49.590Z,84.72
2018-11-29T14:50:25.362Z,83.87
2018-11-29T14:52:53.688Z,84.11
2018-11-29T14:55:22.075Z,84.07
2018-11-29T14:57:50.442Z,84.97
2018-11-29T15:00:18.870Z,83.92
2018-11-29T15:02:47.229Z,84.07
2018-11-29T15:05:21.089Z,83.85
2018-11-29T15:07:49.467Z,84.28
2018-11-29T15:10:17.828Z,84.52
2018-11-29T15:12:46.281Z,83.75
2018-11-29T15:15:14.750Z,84.07
2018-11-29T15:17:44.369Z,84.09
2018-11-29T15:20:16.411Z,83.59
2018-11-29T15:22:44.736Z,83.27
2018-11-29T15:25:13.110Z,83.69
2018-11-29T15:27:41.506Z,84.82
2018-11-29T15:30:13.450Z,83.91
2018-11-29T15:32:41.889Z,82.84
2018-11-29T15:35:10.204Z,82.49
2018-11-29T15:37:38.568Z,83.95
2018-11-29T15:40:09.264Z,82.73
2018-11-29T15:42:37.613Z,82.26
2018-11-29T15:45:08.653Z,80.15
2018-11-29T15:47:37.048Z,82.94
2018-11-29T15:50:07.330Z,80.08
2018-11-29T15:52:35.783Z,81.75
2018-11-29T15:55:04.447Z,82.58
2018-11-29T15:57:35.113Z,80.11
2018-11-29T16:00:01.256Z,81.50
2018-11-29T16:02:29.780Z,80.46
2018-11-29T16:04:58.109Z,81.31
2018-11-29T16:07:26.502Z,80.97
2018-11-29T16:09:55.226Z,81.28
2018-11-29T16:12:23.555Z,81.23
2018-11-29T16:14:51.932Z,81.54
2018-11-29T16:17:20.348Z,81.19
2018-11-29T16:19:48.652Z,81.25
2018-11-29T16:22:17.101Z,80.60
2018-11-29T16:24:45.473Z,79.29
2018-11-29T16:27:13.869Z,80.66
2018-11-29T16:29:42.186Z,80.83
2018-11-29T16:32:11.585Z,80.60
2018-11-29T16:34:39.861Z,80.82
2018-11-29T16:37:08.174Z,81.14
2018-11-29T16:39:36.510Z,81.45
2018-11-29T16:42:05.189Z,82.03
2018-11-29T16:44:33.477Z,82.08
2018-11-29T16:47:01.773Z,82.31
2018-11-29T16:49:30.093Z,82.27
2018-11-29T16:51:58.444Z,82.01
2018-11-29T16:54:26.821Z,80.82
2018-11-29T16:56:55.184Z,81.62
2018-11-29T16:59:23.591Z,80.67
2018-11-29T17:01:51.891Z,82.10
2018-11-29T17:04:20.281Z,82.55
2018-11-29T17:06:49.671Z,82.72
2018-11-29T17:09:19.360Z,83.50
2018-11-29T17:11:47.771Z,82.78
2018-11-29T17:14:16.194Z,83.55
2018-11-29T17:16:44.540Z,83.38
2018-11-29T17:19:12.916Z,82.84
2018-11-29T17:21:41.251Z,81.70
2018-11-29T17:24:09.921Z,81.53
2018-11-29T17:26:38.384Z,83.00
2018-11-29T17:29:06.923Z,84.42
2018-11-29T17:31:35.467Z,83.21
2018-11-29T17:34:03.871Z,80.41
2018-11-29T17:36:32.181Z,79.82
2018-11-29T17:39:00.601Z,80.56
2018-11-29T17:41:28.979Z,81.53
2018-11-29T17:43:57.338Z,84.11
2018-11-29T17:46:25.680Z,84.85
2018-11-29T17:48:54.070Z,84.71
2018-11-29T17:51:22.469Z,84.26
2018-11-29T17:53:50.863Z,83.31
2018-11-29T17:56:19.174Z,80.97
2018-11-29T17:58:47.527Z,82.20
2018-11-29T18:01:16.087Z,79.30
2018-11-29T18:03:44.474Z,83.01
2018-11-29T18:06:12.822Z,82.09
2018-11-29T18:08:41.238Z,82.64
2018-11-29T18:11:09.709Z,79.82
2018-11-29T18:13:39.336Z,81.51
2018-11-29T18:16:08.018Z,82.95
2018-11-29T18:18:36.383Z,82.98
2018-11-29T18:21:04.859Z,82.59
2018-11-29T18:23:33.337Z,82.56
2018-11-29T18:26:02.081Z,81.77
2018-11-29T18:28:30.536Z,79.39
2018-11-29T18:30:58.898Z,78.64
2018-11-29T18:33:27.446Z,75.27
2018-11-29T18:35:55.857Z,76.40
2018-11-29T18:38:24.216Z,78.36
2018-11-29T18:40:52.646Z,77.36
2018-11-29T18:43:21.090Z,75.72
2018-11-29T18:45:49.407Z,76.03
2018-11-29T18:48:17.841Z,77.17
2018-11-29T18:50:46.281Z,76.74
2018-11-29T18:53:14.685Z,75.73
2018-11-29T18:55:43.083Z,75.23
2018-11-29T18:58:11.626Z,74.48
2018-11-29T19:00:40.125Z,75.42
2018-11-29T19:03:09.188Z,76.54
2018-11-29T19:05:37.634Z,73.75
2018-11-29T19:08:07.866Z,73.42
2018-11-29T19:10:36.524Z,72.76
2018-11-29T19:13:09.582Z,71.54
2018-11-29T19:15:38.042Z,72.48
2018-11-29T19:18:10.480Z,72.25
2018-11-29T19:20:35.949Z,71.52
2018-11-29T19:23:04.372Z,71.42
2018-11-29T19:25:32.695Z,72.49
2018-11-29T19:28:01.099Z,69.10
2018-11-29T19:30:31.480Z,69.82
2018-11-29T19:33:08.958Z,67.91
2018-11-29T19:35:37.285Z,68.56
2018-11-29T19:38:06.190Z,71.05
2018-11-29T19:40:34.730Z,72.31
2018-11-29T19:43:04.041Z,70.71
2018-11-29T19:45:33.896Z,69.25
2018-11-29T19:48:02.309Z,66.72
2018-11-29T19:50:30.897Z,67.12
2018-11-29T19:53:00.765Z,68.16
2018-11-29T19:55:31.184Z,68.86
2018-11-29T19:58:00.262Z,69.85
2018-11-29T20:00:29.288Z,70.61
2018-11-29T20:02:57.843Z,72.73
2018-11-29T20:05:26.175Z,73.10
2018-11-29T20:07:55.002Z,72.81
2018-11-29T20:10:23.500Z,71.16
2018-11-29T20:12:58.575Z,69.72
2018-11-29T20:15:27.107Z,69.16
2018-11-29T20:17:55.458Z,71.58
2018-11-29T20:20:23.833Z,70.44
2018-11-29T20:22:52.900Z,68.81
2018-11-29T20:25:23.779Z,68.80
2018-11-29T20:27:52.133Z,67.92
2018-11-29T20:30:21.407Z,67.59
2018-11-29T20:32:51.562Z,69.02
2018-11-29T20:35:20.176Z,70.16
2018-11-29T20:37:49.596Z,69.51
2018-11-29T20:40:22.026Z,72.50
2018-11-29T20:42:51.462Z,70.63
2018-11-29T20:45:22.426Z,69.81
2018-11-29T20:47:50.832Z,71.00
2018-11-29T20:50:21.797Z,72.06
2018-11-29T20:52:51.397Z,71.63
2018-11-29T20:55:23.108Z,72.10
2018-11-29T20:57:51.457Z,73.42
2018-11-29T21:00:21.606Z,70.38
2018-11-29T21:02:50.020Z,71.74
2018-11-29T21:05:19.664Z,70.50
2018-11-29T21:07:50.130Z,68.30
2018-11-29T21:10:21.024Z,68.50
2018-11-29T21:12:49.440Z,68.36
2018-11-29T21:15:19.004Z,68.87
2018-11-29T21:17:47.954Z,68.22
2018-11-29T21:20:17.867Z,66.53
2018-11-29T21:22:47.314Z,68.29
2018-11-29T21:25:17.173Z,67.97
2018-11-29T21:27:45.559Z,67.52
2018-11-29T21:30:17.336Z,66.78
2018-11-29T21:32:46.545Z,65.77
2018-11-29T21:35:16.982Z,66.70
2018-11-29T21:37:45.426Z,67.16
2018-11-29T21:40:22.892Z,66.29
2018-11-29T21:42:51.497Z,65.07
2018-11-29T21:45:19.864Z,66.25
2018-11-29T21:47:48.293Z,67.54
2018-11-29T21:50:16.706Z,65.91
2018-11-29T21:52:45.670Z,66.48
2018-11-29T21:55:14.375Z,66.88
2018-11-29T21:57:42.737Z,66.32
2018-11-29T22:00:17.429Z,67.72
2018-11-29T22:02:48.712Z,67.54
2018-11-29T22:05:17.020Z,67.77
2018-11-29T22:07:45.377Z,67.28
2018-11-29T22:10:13.809Z,67.74
2018-11-29T22:12:42.158Z,67.15
2018-11-29T22:15:11.516Z,66.86
2018-11-29T22:17:48.225Z,66.26
2018-11-29T22:20:16.726Z,66.69
2018-11-29T22:22:45.008Z,66.20
2018-11-29T22:25:13.479Z,65.19
2018-11-29T22:27:41.881Z,64.33
2018-11-29T22:30:10.349Z,64.87
2018-11-29T22:32:38.815Z,65.10
2018-11-29T22:35:08.447Z,65.75
2018-11-29T22:37:37.322Z,66.19
2018-11-29T22:40:06.416Z,64.79
2018-11-29T22:42:34.721Z,65.94
2018-11-29T22:45:03.118Z,65.18
2018-11-29T22:47:31.593Z,63.22
2018-11-29T22:50:00.122Z,63.92
2018-11-29T22:52:28.462Z,66.12
2018-11-29T22:54:56.842Z,66.64
2018-11-29T22:57:25.320Z,65.50
2018-11-29T22:59:53.718Z,64.33
2018-11-29T23:02:22.201Z,64.79
2018-11-29T23:04:50.605Z,62.64
2018-11-29T23:07:18.936Z,63.95
2018-11-29T23:09:47.345Z,64.95
2018-11-29T23:12:15.674Z,66.70
2018-11-29T23:14:44.022Z,67.00
2018-11-29T23:17:12.472Z,67.05
2018-11-29T23:19:40.797Z,68.45
2018-11-29T23:22:09.093Z,67.95
2018-11-29T23:24:37.530Z,67.79
2018-11-29T23:27:05.989Z,70.89
2018-11-29T23:29:34.304Z,69.16
2018-11-29T23:32:02.657Z,70.14
2018-11-29T23:34:31.019Z,69.05
2018-11-29T23:36:59.461Z,67.87
2018-11-29T23:39:27.863Z,65.68
2018-11-29T23:41:56.176Z,68.98
2018-11-29T23:44:24.461Z,69.04
2018-11-29T23:46:52.782Z,69.65
2018-11-29T23:49:21.100Z,68.01
2018-11-29T23:51:49.443Z,69.54
2018-11-29T23:54:17.798Z,69.88
2018-11-29T23:56:46.192Z,68.12
2018-11-29T23:59:14.530Z,66.38
